sensor_id;sensor_type;location;lat;lon;timestamp;P1;durP1;ratioP1;P2;durP2;ratioP2
2906;SDS011;1463;51.070;16.998;2023-05-14T00:02:00;8.75;;;6.45;;
2906;SDS011;1463;51.070;16.998;2023-05-14T00:04:29;9.02;;;5.82;;
2906;SDS011;1463;51.070;16.998;2023-05-14T00:06:57;8.45;;;5.40;;
2906;SDS011;1463;51.070;16.998;2023-05-14T00:09:24;9.70;;;6.20;;
2906;SDS011;1463;51.070;16.998;2023-05-14T00:11:51;7.78;;;5.10;;
2906;SDS011;1463;51.070;16.998;2023-05-14T00:14:19;11.15;;;6.40;;
2906;SDS011;1463;51.070;16.998;2023-05-14T00:16:46;11.73;;;5.75;;
2906;SDS011;1463;51.070;16.998;2023-05-14T00:19:14;8.82;;;5.30;;
2906;SDS011;1463;51.070;16.998;2023-05-14T00:21:43;7.50;;;4.95;;
2906;SDS011;1463;51.070;16.998;2023-05-14T00:24:10;7.20;;;5.85;;
2906;SDS011;1463;51.070;16.998;2023-05-14T00:26:38;10.25;;;6.30;;
2906;SDS011;1463;51.070;16.998;2023-05-14T00:29:05;9.85;;;5.55;;
2906;SDS011;1463;51.070;16.998;2023-05-14T00:31:32;6.60;;;5.90;;
2906;SDS011;1463;51.070;16.998;2023-05-14T00:34:00;8.60;;;5.00;;
2906;SDS011;1463;51.070;16.998;2023-05-14T00:36:27;9.70;;;6.45;;
2906;SDS011;1463;51.070;16.998;2023-05-14T00:38:56;12.80;;;5.20;;
2906;SDS011;1463;51.070;16.998;2023-05-14T00:41:24;6.88;;;4.95;;
2906;SDS011;1463;51.070;16.998;2023-05-14T00:43:51;8.02;;;4.75;;
2906;SDS011;1463;51.070;16.998;2023-05-14T00:46:19;9.32;;;6.30;;
2906;SDS011;1463;51.070;16.998;2023-05-14T00:48:46;7.82;;;6.43;;
2906;SDS011;1463;51.070;16.998;2023-05-14T00:51:14;7.05;;;5.22;;
2906;SDS011;1463;51.070;16.998;2023-05-14T00:53:43;6.72;;;5.13;;
2906;SDS011;1463;51.070;16.998;2023-05-14T00:56:12;6.40;;;4.70;;
2906;SDS011;1463;51.070;16.998;2023-05-14T00:58:40;10.80;;;6.10;;
2906;SDS011;1463;51.070;16.998;2023-05-14T01:01:08;9.10;;;5.63;;
2906;SDS011;1463;51.070;16.998;2023-05-14T01:03:39;12.50;;;5.35;;
2906;SDS011;1463;51.070;16.998;2023-05-14T01:06:08;12.27;;;6.20;;
2906;SDS011;1463;51.070;16.998;2023-05-14T01:08:44;8.10;;;4.95;;
2906;SDS011;1463;51.070;16.998;2023-05-14T01:11:27;9.60;;;5.68;;
2906;SDS011;1463;51.070;16.998;2023-05-14T01:13:59;8.50;;;5.00;;
2906;SDS011;1463;51.070;16.998;2023-05-14T01:16:34;10.82;;;4.38;;
2906;SDS011;1463;51.070;16.998;2023-05-14T01:19:04;10.48;;;5.05;;
2906;SDS011;1463;51.070;16.998;2023-05-14T01:21:43;8.27;;;5.30;;
2906;SDS011;1463;51.070;16.998;2023-05-14T01:24:10;7.97;;;5.10;;
2906;SDS011;1463;51.070;16.998;2023-05-14T01:26:37;10.60;;;6.28;;
2906;SDS011;1463;51.070;16.998;2023-05-14T01:29:07;6.95;;;5.00;;
2906;SDS011;1463;51.070;16.998;2023-05-14T01:31:42;11.07;;;4.85;;
2906;SDS011;1463;51.070;16.998;2023-05-14T01:34:11;8.82;;;4.53;;
2906;SDS011;1463;51.070;16.998;2023-05-14T01:36:40;8.18;;;5.35;;
2906;SDS011;1463;51.070;16.998;2023-05-14T01:39:10;9.23;;;5.47;;
2906;SDS011;1463;51.070;16.998;2023-05-14T01:41:39;8.93;;;5.60;;
2906;SDS011;1463;51.070;16.998;2023-05-14T01:44:08;6.30;;;4.38;;
2906;SDS011;1463;51.070;16.998;2023-05-14T01:46:36;6.07;;;4.30;;
2906;SDS011;1463;51.070;16.998;2023-05-14T01:49:03;7.53;;;5.10;;
2906;SDS011;1463;51.070;16.998;2023-05-14T01:51:31;7.15;;;5.35;;
2906;SDS011;1463;51.070;16.998;2023-05-14T01:54:00;7.90;;;4.75;;
2906;SDS011;1463;51.070;16.998;2023-05-14T01:56:27;8.18;;;5.60;;
2906;SDS011;1463;51.070;16.998;2023-05-14T01:58:54;11.40;;;5.70;;
2906;SDS011;1463;51.070;16.998;2023-05-14T02:01:22;7.25;;;5.05;;
2906;SDS011;1463;51.070;16.998;2023-05-14T02:03:50;7.65;;;5.45;;
2906;SDS011;1463;51.070;16.998;2023-05-14T02:06:17;11.00;;;5.60;;
2906;SDS011;1463;51.070;16.998;2023-05-14T02:08:45;8.60;;;4.70;;
2906;SDS011;1463;51.070;16.998;2023-05-14T02:11:14;10.82;;;6.22;;
2906;SDS011;1463;51.070;16.998;2023-05-14T02:13:41;9.68;;;5.82;;
2906;SDS011;1463;51.070;16.998;2023-05-14T02:16:08;8.98;;;5.50;;
2906;SDS011;1463;51.070;16.998;2023-05-14T02:18:36;7.63;;;4.85;;
2906;SDS011;1463;51.070;16.998;2023-05-14T02:21:03;7.90;;;4.97;;
2906;SDS011;1463;51.070;16.998;2023-05-14T02:23:31;7.95;;;5.10;;
2906;SDS011;1463;51.070;16.998;2023-05-14T02:25:58;11.82;;;6.10;;
2906;SDS011;1463;51.070;16.998;2023-05-14T02:28:27;7.88;;;5.55;;
2906;SDS011;1463;51.070;16.998;2023-05-14T02:30:57;9.07;;;5.57;;
2906;SDS011;1463;51.070;16.998;2023-05-14T02:33:25;9.00;;;5.22;;
2906;SDS011;1463;51.070;16.998;2023-05-14T02:35:52;9.18;;;5.03;;
2906;SDS011;1463;51.070;16.998;2023-05-14T02:38:20;8.93;;;5.57;;
2906;SDS011;1463;51.070;16.998;2023-05-14T02:40:48;9.90;;;5.80;;
2906;SDS011;1463;51.070;16.998;2023-05-14T02:43:15;8.30;;;5.00;;
2906;SDS011;1463;51.070;16.998;2023-05-14T02:45:44;10.75;;;5.60;;
2906;SDS011;1463;51.070;16.998;2023-05-14T02:48:11;11.00;;;6.13;;
2906;SDS011;1463;51.070;16.998;2023-05-14T02:50:39;16.75;;;5.15;;
2906;SDS011;1463;51.070;16.998;2023-05-14T02:53:06;8.50;;;5.15;;
2906;SDS011;1463;51.070;16.998;2023-05-14T02:55:34;10.75;;;6.38;;
2906;SDS011;1463;51.070;16.998;2023-05-14T02:58:02;8.85;;;6.95;;
2906;SDS011;1463;51.070;16.998;2023-05-14T03:00:29;11.13;;;6.80;;
2906;SDS011;1463;51.070;16.998;2023-05-14T03:02:58;11.07;;;6.15;;
2906;SDS011;1463;51.070;16.998;2023-05-14T03:05:25;17.92;;;6.82;;
2906;SDS011;1463;51.070;16.998;2023-05-14T03:07:53;10.13;;;5.55;;
2906;SDS011;1463;51.070;16.998;2023-05-14T03:10:20;8.02;;;4.95;;
2906;SDS011;1463;51.070;16.998;2023-05-14T03:12:47;10.55;;;5.38;;
2906;SDS011;1463;51.070;16.998;2023-05-14T03:15:15;11.75;;;6.00;;
2906;SDS011;1463;51.070;16.998;2023-05-14T03:17:43;9.05;;;6.20;;
2906;SDS011;1463;51.070;16.998;2023-05-14T03:20:12;9.65;;;6.28;;
2906;SDS011;1463;51.070;16.998;2023-05-14T03:22:40;11.63;;;5.10;;
2906;SDS011;1463;51.070;16.998;2023-05-14T03:25:08;10.48;;;6.65;;
2906;SDS011;1463;51.070;16.998;2023-05-14T03:27:35;11.52;;;6.00;;
2906;SDS011;1463;51.070;16.998;2023-05-14T03:30:03;7.35;;;5.00;;
2906;SDS011;1463;51.070;16.998;2023-05-14T03:32:31;7.32;;;5.25;;
2906;SDS011;1463;51.070;16.998;2023-05-14T03:34:59;8.73;;;5.25;;
2906;SDS011;1463;51.070;16.998;2023-05-14T03:37:28;8.48;;;5.88;;
2906;SDS011;1463;51.070;16.998;2023-05-14T03:39:55;9.35;;;5.68;;
2906;SDS011;1463;51.070;16.998;2023-05-14T03:42:23;6.82;;;5.05;;
2906;SDS011;1463;51.070;16.998;2023-05-14T03:44:50;8.85;;;6.57;;
2906;SDS011;1463;51.070;16.998;2023-05-14T03:47:17;6.10;;;4.55;;
2906;SDS011;1463;51.070;16.998;2023-05-14T03:49:45;12.55;;;7.28;;
2906;SDS011;1463;51.070;16.998;2023-05-14T03:52:12;11.77;;;6.50;;
2906;SDS011;1463;51.070;16.998;2023-05-14T03:54:41;10.43;;;7.07;;
2906;SDS011;1463;51.070;16.998;2023-05-14T03:57:09;10.52;;;6.40;;
2906;SDS011;1463;51.070;16.998;2023-05-14T03:59:36;9.98;;;5.35;;
2906;SDS011;1463;51.070;16.998;2023-05-14T04:02:03;10.75;;;6.85;;
2906;SDS011;1463;51.070;16.998;2023-05-14T04:04:31;9.98;;;6.40;;
2906;SDS011;1463;51.070;16.998;2023-05-14T04:06:58;9.27;;;5.85;;
2906;SDS011;1463;51.070;16.998;2023-05-14T04:09:25;12.05;;;6.78;;
2906;SDS011;1463;51.070;16.998;2023-05-14T04:11:54;8.30;;;5.60;;
2906;SDS011;1463;51.070;16.998;2023-05-14T04:14:22;14.30;;;5.95;;
2906;SDS011;1463;51.070;16.998;2023-05-14T04:16:49;8.15;;;6.22;;
2906;SDS011;1463;51.070;16.998;2023-05-14T04:19:17;11.60;;;6.65;;
2906;SDS011;1463;51.070;16.998;2023-05-14T04:21:44;9.32;;;6.75;;
2906;SDS011;1463;51.070;16.998;2023-05-14T04:24:11;8.88;;;5.45;;
2906;SDS011;1463;51.070;16.998;2023-05-14T04:26:39;8.73;;;5.47;;
2906;SDS011;1463;51.070;16.998;2023-05-14T04:29:08;8.38;;;5.38;;
2906;SDS011;1463;51.070;16.998;2023-05-14T04:31:35;7.05;;;5.38;;
2906;SDS011;1463;51.070;16.998;2023-05-14T04:34:04;7.40;;;5.05;;
2906;SDS011;1463;51.070;16.998;2023-05-14T04:36:32;8.73;;;5.90;;
2906;SDS011;1463;51.070;16.998;2023-05-14T04:38:59;8.68;;;5.68;;
2906;SDS011;1463;51.070;16.998;2023-05-14T04:41:26;8.10;;;6.10;;
2906;SDS011;1463;51.070;16.998;2023-05-14T04:43:54;10.45;;;6.40;;
2906;SDS011;1463;51.070;16.998;2023-05-14T04:46:24;10.20;;;5.55;;
2906;SDS011;1463;51.070;16.998;2023-05-14T04:48:51;10.82;;;6.03;;
2906;SDS011;1463;51.070;16.998;2023-05-14T04:51:19;11.27;;;6.40;;
2906;SDS011;1463;51.070;16.998;2023-05-14T04:53:46;6.35;;;5.13;;
2906;SDS011;1463;51.070;16.998;2023-05-14T04:56:14;8.32;;;5.88;;
2906;SDS011;1463;51.070;16.998;2023-05-14T04:58:41;11.93;;;6.10;;
2906;SDS011;1463;51.070;16.998;2023-05-14T05:01:09;10.68;;;6.35;;
2906;SDS011;1463;51.070;16.998;2023-05-14T05:03:38;10.15;;;5.00;;
2906;SDS011;1463;51.070;16.998;2023-05-14T05:06:05;10.18;;;5.95;;
2906;SDS011;1463;51.070;16.998;2023-05-14T05:08:33;16.02;;;5.90;;
2906;SDS011;1463;51.070;16.998;2023-05-14T05:11:01;7.75;;;5.80;;
2906;SDS011;1463;51.070;16.998;2023-05-14T05:13:29;8.48;;;5.78;;
2906;SDS011;1463;51.070;16.998;2023-05-14T05:15:57;7.85;;;5.32;;
2906;SDS011;1463;51.070;16.998;2023-05-14T05:18:25;8.43;;;6.28;;
2906;SDS011;1463;51.070;16.998;2023-05-14T05:20:54;9.70;;;5.05;;
2906;SDS011;1463;51.070;16.998;2023-05-14T05:23:21;7.75;;;5.43;;
2906;SDS011;1463;51.070;16.998;2023-05-14T05:25:49;12.80;;;5.38;;
2906;SDS011;1463;51.070;16.998;2023-05-14T05:28:16;8.15;;;5.63;;
2906;SDS011;1463;51.070;16.998;2023-05-14T05:30:43;7.65;;;5.20;;
2906;SDS011;1463;51.070;16.998;2023-05-14T05:33:11;7.07;;;6.03;;
2906;SDS011;1463;51.070;16.998;2023-05-14T05:35:38;11.15;;;5.90;;
2906;SDS011;1463;51.070;16.998;2023-05-14T05:38:07;8.25;;;5.78;;
2906;SDS011;1463;51.070;16.998;2023-05-14T05:40:35;8.40;;;5.20;;
2906;SDS011;1463;51.070;16.998;2023-05-14T05:43:02;11.40;;;5.68;;
2906;SDS011;1463;51.070;16.998;2023-05-14T05:45:29;8.02;;;5.90;;
2906;SDS011;1463;51.070;16.998;2023-05-14T05:47:57;7.13;;;4.60;;
2906;SDS011;1463;51.070;16.998;2023-05-14T05:50:24;8.18;;;5.32;;
2906;SDS011;1463;51.070;16.998;2023-05-14T05:52:52;8.80;;;4.95;;
2906;SDS011;1463;51.070;16.998;2023-05-14T05:55:21;8.45;;;5.45;;
2906;SDS011;1463;51.070;16.998;2023-05-14T05:57:48;9.05;;;4.85;;
2906;SDS011;1463;51.070;16.998;2023-05-14T06:00:16;7.85;;;5.13;;
2906;SDS011;1463;51.070;16.998;2023-05-14T06:02:44;6.90;;;5.45;;
2906;SDS011;1463;51.070;16.998;2023-05-14T06:05:12;7.97;;;5.43;;
2906;SDS011;1463;51.070;16.998;2023-05-14T06:07:40;8.10;;;5.30;;
2906;SDS011;1463;51.070;16.998;2023-05-14T06:10:07;6.57;;;5.35;;
2906;SDS011;1463;51.070;16.998;2023-05-14T06:12:36;8.82;;;5.32;;
2906;SDS011;1463;51.070;16.998;2023-05-14T06:15:05;12.23;;;5.80;;
2906;SDS011;1463;51.070;16.998;2023-05-14T06:17:33;9.90;;;5.95;;
2906;SDS011;1463;51.070;16.998;2023-05-14T06:20:00;12.88;;;6.15;;
2906;SDS011;1463;51.070;16.998;2023-05-14T06:22:29;9.98;;;5.65;;
2906;SDS011;1463;51.070;16.998;2023-05-14T06:24:57;15.68;;;5.85;;
2906;SDS011;1463;51.070;16.998;2023-05-14T06:27:24;10.77;;;6.47;;
2906;SDS011;1463;51.070;16.998;2023-05-14T06:29:53;11.40;;;6.00;;
2906;SDS011;1463;51.070;16.998;2023-05-14T06:32:21;8.82;;;5.43;;
2906;SDS011;1463;51.070;16.998;2023-05-14T06:34:48;8.82;;;5.50;;
2906;SDS011;1463;51.070;16.998;2023-05-14T06:37:16;8.18;;;5.78;;
2906;SDS011;1463;51.070;16.998;2023-05-14T06:39:43;9.18;;;5.47;;
2906;SDS011;1463;51.070;16.998;2023-05-14T06:42:14;9.35;;;5.65;;
2906;SDS011;1463;51.070;16.998;2023-05-14T06:44:41;9.30;;;5.85;;
2906;SDS011;1463;51.070;16.998;2023-05-14T06:47:10;8.38;;;5.40;;
2906;SDS011;1463;51.070;16.998;2023-05-14T06:49:38;8.82;;;5.43;;
2906;SDS011;1463;51.070;16.998;2023-05-14T06:52:05;9.63;;;6.45;;
2906;SDS011;1463;51.070;16.998;2023-05-14T06:54:33;6.68;;;5.57;;
2906;SDS011;1463;51.070;16.998;2023-05-14T06:57:00;12.52;;;5.60;;
2906;SDS011;1463;51.070;16.998;2023-05-14T06:59:28;10.80;;;5.88;;
2906;SDS011;1463;51.070;16.998;2023-05-14T07:01:55;11.55;;;6.60;;
2906;SDS011;1463;51.070;16.998;2023-05-14T07:04:25;8.27;;;4.75;;
2906;SDS011;1463;51.070;16.998;2023-05-14T07:06:52;10.05;;;5.65;;
2906;SDS011;1463;51.070;16.998;2023-05-14T07:09:20;9.27;;;5.88;;
2906;SDS011;1463;51.070;16.998;2023-05-14T07:11:48;9.90;;;5.28;;
2906;SDS011;1463;51.070;16.998;2023-05-14T07:14:15;7.18;;;5.25;;
2906;SDS011;1463;51.070;16.998;2023-05-14T07:16:43;8.93;;;5.22;;
2906;SDS011;1463;51.070;16.998;2023-05-14T07:19:11;7.70;;;5.20;;
2906;SDS011;1463;51.070;16.998;2023-05-14T07:21:40;6.28;;;4.55;;
2906;SDS011;1463;51.070;16.998;2023-05-14T07:24:07;5.72;;;3.65;;
2906;SDS011;1463;51.070;16.998;2023-05-14T07:26:35;6.65;;;3.70;;
2906;SDS011;1463;51.070;16.998;2023-05-14T07:29:03;4.80;;;3.10;;
2906;SDS011;1463;51.070;16.998;2023-05-14T07:31:30;5.18;;;3.05;;
2906;SDS011;1463;51.070;16.998;2023-05-14T07:33:58;7.43;;;3.00;;
2906;SDS011;1463;51.070;16.998;2023-05-14T07:36:25;4.95;;;3.08;;
2906;SDS011;1463;51.070;16.998;2023-05-14T07:38:59;4.63;;;3.22;;
2906;SDS011;1463;51.070;16.998;2023-05-14T07:41:26;4.97;;;3.15;;
2906;SDS011;1463;51.070;16.998;2023-05-14T07:43:54;4.93;;;3.42;;
2906;SDS011;1463;51.070;16.998;2023-05-14T07:46:21;5.15;;;3.15;;
2906;SDS011;1463;51.070;16.998;2023-05-14T07:48:50;6.55;;;4.10;;
2906;SDS011;1463;51.070;16.998;2023-05-14T07:51:17;5.95;;;2.80;;
2906;SDS011;1463;51.070;16.998;2023-05-14T07:53:44;4.38;;;2.55;;
2906;SDS011;1463;51.070;16.998;2023-05-14T07:56:13;5.32;;;3.78;;
2906;SDS011;1463;51.070;16.998;2023-05-14T07:58:41;6.55;;;3.15;;
2906;SDS011;1463;51.070;16.998;2023-05-14T08:01:08;4.25;;;2.97;;
2906;SDS011;1463;51.070;16.998;2023-05-14T08:03:36;3.92;;;2.88;;
2906;SDS011;1463;51.070;16.998;2023-05-14T08:06:04;3.83;;;2.60;;
2906;SDS011;1463;51.070;16.998;2023-05-14T08:08:32;3.72;;;2.30;;
2906;SDS011;1463;51.070;16.998;2023-05-14T08:11:00;4.82;;;2.95;;
2906;SDS011;1463;51.070;16.998;2023-05-14T08:13:30;6.00;;;2.88;;
2906;SDS011;1463;51.070;16.998;2023-05-14T08:15:57;5.15;;;3.15;;
2906;SDS011;1463;51.070;16.998;2023-05-14T08:18:25;5.95;;;3.85;;
2906;SDS011;1463;51.070;16.998;2023-05-14T08:20:53;5.30;;;3.20;;
2906;SDS011;1463;51.070;16.998;2023-05-14T08:23:20;4.22;;;2.92;;
2906;SDS011;1463;51.070;16.998;2023-05-14T08:25:48;4.80;;;3.30;;
2906;SDS011;1463;51.070;16.998;2023-05-14T08:28:15;5.13;;;2.60;;
2906;SDS011;1463;51.070;16.998;2023-05-14T08:30:44;5.20;;;2.63;;
2906;SDS011;1463;51.070;16.998;2023-05-14T08:33:11;4.00;;;2.20;;
2906;SDS011;1463;51.070;16.998;2023-05-14T08:35:39;6.33;;;2.93;;
2906;SDS011;1463;51.070;16.998;2023-05-14T08:38:06;4.50;;;2.50;;
2906;SDS011;1463;51.070;16.998;2023-05-14T08:40:34;6.20;;;2.63;;
2906;SDS011;1463;51.070;16.998;2023-05-14T08:43:01;4.00;;;2.83;;
2906;SDS011;1463;51.070;16.998;2023-05-14T08:45:29;4.67;;;2.70;;
2906;SDS011;1463;51.070;16.998;2023-05-14T08:48:00;4.53;;;2.50;;
2906;SDS011;1463;51.070;16.998;2023-05-14T08:50:33;3.10;;;2.03;;
2906;SDS011;1463;51.070;16.998;2023-05-14T08:53:01;3.60;;;2.00;;
2906;SDS011;1463;51.070;16.998;2023-05-14T08:55:28;5.57;;;2.60;;
2906;SDS011;1463;51.070;16.998;2023-05-14T08:57:58;3.97;;;2.27;;
2906;SDS011;1463;51.070;16.998;2023-05-14T09:00:25;3.90;;;2.33;;
2906;SDS011;1463;51.070;16.998;2023-05-14T09:02:53;3.63;;;2.60;;
2906;SDS011;1463;51.070;16.998;2023-05-14T09:05:22;3.50;;;2.20;;
2906;SDS011;1463;51.070;16.998;2023-05-14T09:07:50;4.10;;;2.30;;
2906;SDS011;1463;51.070;16.998;2023-05-14T09:10:18;4.60;;;2.10;;
2906;SDS011;1463;51.070;16.998;2023-05-14T09:12:46;4.10;;;2.30;;
2906;SDS011;1463;51.070;16.998;2023-05-14T09:15:13;3.90;;;2.37;;
2906;SDS011;1463;51.070;16.998;2023-05-14T09:17:41;3.50;;;2.13;;
2906;SDS011;1463;51.070;16.998;2023-05-14T09:20:09;3.53;;;2.00;;
2906;SDS011;1463;51.070;16.998;2023-05-14T09:22:40;4.73;;;1.87;;
2906;SDS011;1463;51.070;16.998;2023-05-14T09:25:08;7.70;;;2.50;;
2906;SDS011;1463;51.070;16.998;2023-05-14T09:27:37;5.83;;;3.77;;
2906;SDS011;1463;51.070;16.998;2023-05-14T09:30:06;3.70;;;2.50;;
2906;SDS011;1463;51.070;16.998;2023-05-14T09:32:35;7.40;;;2.00;;
2906;SDS011;1463;51.070;16.998;2023-05-14T09:35:13;3.33;;;1.80;;
2906;SDS011;1463;51.070;16.998;2023-05-14T09:37:45;4.30;;;2.10;;
2906;SDS011;1463;51.070;16.998;2023-05-14T09:40:14;3.13;;;1.63;;
2906;SDS011;1463;51.070;16.998;2023-05-14T09:42:43;3.40;;;2.07;;
2906;SDS011;1463;51.070;16.998;2023-05-14T09:45:12;3.40;;;1.90;;
2906;SDS011;1463;51.070;16.998;2023-05-14T09:47:39;3.80;;;1.50;;
2906;SDS011;1463;51.070;16.998;2023-05-14T09:50:09;3.53;;;1.93;;
2906;SDS011;1463;51.070;16.998;2023-05-14T09:52:37;3.00;;;1.50;;
2906;SDS011;1463;51.070;16.998;2023-05-14T09:55:07;3.07;;;1.70;;
2906;SDS011;1463;51.070;16.998;2023-05-14T09:57:34;2.90;;;1.50;;
2906;SDS011;1463;51.070;16.998;2023-05-14T10:00:02;2.60;;;1.50;;
2906;SDS011;1463;51.070;16.998;2023-05-14T10:02:34;3.23;;;1.97;;
2906;SDS011;1463;51.070;16.998;2023-05-14T10:05:05;3.53;;;1.63;;
2906;SDS011;1463;51.070;16.998;2023-05-14T10:07:35;3.90;;;1.80;;
2906;SDS011;1463;51.070;16.998;2023-05-14T10:10:08;3.10;;;2.00;;
2906;SDS011;1463;51.070;16.998;2023-05-14T10:12:40;2.40;;;1.33;;
2906;SDS011;1463;51.070;16.998;2023-05-14T10:15:12;3.10;;;1.30;;
2906;SDS011;1463;51.070;16.998;2023-05-14T10:17:46;8.20;;;1.60;;
2906;SDS011;1463;51.070;16.998;2023-05-14T10:20:17;4.20;;;1.90;;
2906;SDS011;1463;51.070;16.998;2023-05-14T10:22:46;2.40;;;1.50;;
2906;SDS011;1463;51.070;16.998;2023-05-14T10:25:15;3.80;;;1.87;;
2906;SDS011;1463;51.070;16.998;2023-05-14T10:27:43;3.37;;;1.60;;
2906;SDS011;1463;51.070;16.998;2023-05-14T10:30:11;2.67;;;1.50;;
2906;SDS011;1463;51.070;16.998;2023-05-14T10:32:39;3.20;;;1.80;;
2906;SDS011;1463;51.070;16.998;2023-05-14T10:35:14;3.03;;;1.60;;
2906;SDS011;1463;51.070;16.998;2023-05-14T10:37:43;2.90;;;1.90;;
2906;SDS011;1463;51.070;16.998;2023-05-14T10:40:11;2.57;;;1.27;;
2906;SDS011;1463;51.070;16.998;2023-05-14T10:42:41;2.67;;;1.57;;
2906;SDS011;1463;51.070;16.998;2023-05-14T10:45:10;3.43;;;2.00;;
2906;SDS011;1463;51.070;16.998;2023-05-14T10:47:40;2.70;;;1.80;;
2906;SDS011;1463;51.070;16.998;2023-05-14T10:50:09;4.90;;;1.57;;
2906;SDS011;1463;51.070;16.998;2023-05-14T10:52:39;3.10;;;1.73;;
2906;SDS011;1463;51.070;16.998;2023-05-14T10:55:08;2.77;;;1.60;;
2906;SDS011;1463;51.070;16.998;2023-05-14T10:57:39;3.03;;;1.73;;
2906;SDS011;1463;51.070;16.998;2023-05-14T11:00:09;3.60;;;1.73;;
2906;SDS011;1463;51.070;16.998;2023-05-14T11:02:39;5.30;;;1.67;;
2906;SDS011;1463;51.070;16.998;2023-05-14T11:05:08;3.00;;;1.70;;
2906;SDS011;1463;51.070;16.998;2023-05-14T11:07:38;3.93;;;1.47;;
2906;SDS011;1463;51.070;16.998;2023-05-14T11:10:07;3.80;;;2.03;;
2906;SDS011;1463;51.070;16.998;2023-05-14T11:12:36;3.50;;;1.50;;
2906;SDS011;1463;51.070;16.998;2023-05-14T11:15:07;3.10;;;1.43;;
2906;SDS011;1463;51.070;16.998;2023-05-14T11:17:36;2.80;;;1.37;;
2906;SDS011;1463;51.070;16.998;2023-05-14T11:20:04;2.30;;;1.40;;
2906;SDS011;1463;51.070;16.998;2023-05-14T11:22:33;3.90;;;1.57;;
2906;SDS011;1463;51.070;16.998;2023-05-14T11:25:01;3.87;;;2.50;;
2906;SDS011;1463;51.070;16.998;2023-05-14T11:27:31;4.00;;;2.20;;
2906;SDS011;1463;51.070;16.998;2023-05-14T11:30:00;3.27;;;1.40;;
2906;SDS011;1463;51.070;16.998;2023-05-14T11:32:29;3.93;;;1.77;;
2906;SDS011;1463;51.070;16.998;2023-05-14T11:34:58;3.30;;;1.67;;
2906;SDS011;1463;51.070;16.998;2023-05-14T11:37:25;2.60;;;1.60;;
2906;SDS011;1463;51.070;16.998;2023-05-14T11:39:57;5.30;;;1.90;;
2906;SDS011;1463;51.070;16.998;2023-05-14T11:42:26;2.90;;;1.90;;
2906;SDS011;1463;51.070;16.998;2023-05-14T11:44:53;2.87;;;1.60;;
2906;SDS011;1463;51.070;16.998;2023-05-14T11:47:21;3.47;;;2.03;;
2906;SDS011;1463;51.070;16.998;2023-05-14T11:49:50;2.50;;;1.57;;
2906;SDS011;1463;51.070;16.998;2023-05-14T11:52:22;2.80;;;1.50;;
2906;SDS011;1463;51.070;16.998;2023-05-14T11:54:49;3.13;;;1.87;;
2906;SDS011;1463;51.070;16.998;2023-05-14T11:57:17;2.60;;;1.70;;
2906;SDS011;1463;51.070;16.998;2023-05-14T11:59:46;7.30;;;1.40;;
2906;SDS011;1463;51.070;16.998;2023-05-14T12:02:14;2.67;;;1.43;;
2906;SDS011;1463;51.070;16.998;2023-05-14T12:04:45;3.00;;;1.73;;
2906;SDS011;1463;51.070;16.998;2023-05-14T12:07:17;2.67;;;1.67;;
2906;SDS011;1463;51.070;16.998;2023-05-14T12:09:45;4.77;;;1.70;;
2906;SDS011;1463;51.070;16.998;2023-05-14T12:12:14;3.07;;;1.77;;
2906;SDS011;1463;51.070;16.998;2023-05-14T12:14:43;3.20;;;1.90;;
2906;SDS011;1463;51.070;16.998;2023-05-14T12:17:12;3.20;;;1.80;;
2906;SDS011;1463;51.070;16.998;2023-05-14T12:19:41;4.00;;;2.03;;
2906;SDS011;1463;51.070;16.998;2023-05-14T12:22:12;6.07;;;3.50;;
2906;SDS011;1463;51.070;16.998;2023-05-14T12:24:42;3.47;;;1.97;;
2906;SDS011;1463;51.070;16.998;2023-05-14T12:27:20;2.27;;;1.50;;
2906;SDS011;1463;51.070;16.998;2023-05-14T12:29:49;4.33;;;1.90;;
2906;SDS011;1463;51.070;16.998;2023-05-14T12:32:24;2.80;;;1.53;;
2906;SDS011;1463;51.070;16.998;2023-05-14T12:34:51;2.57;;;1.60;;
2906;SDS011;1463;51.070;16.998;2023-05-14T12:37:20;4.40;;;1.90;;
2906;SDS011;1463;51.070;16.998;2023-05-14T12:39:48;3.40;;;1.70;;
2906;SDS011;1463;51.070;16.998;2023-05-14T12:42:15;2.67;;;1.73;;
2906;SDS011;1463;51.070;16.998;2023-05-14T12:44:43;2.97;;;1.43;;
2906;SDS011;1463;51.070;16.998;2023-05-14T12:47:10;3.20;;;1.87;;
2906;SDS011;1463;51.070;16.998;2023-05-14T12:49:38;3.13;;;1.83;;
2906;SDS011;1463;51.070;16.998;2023-05-14T12:52:06;3.23;;;1.40;;
2906;SDS011;1463;51.070;16.998;2023-05-14T12:54:35;4.07;;;2.80;;
2906;SDS011;1463;51.070;16.998;2023-05-14T12:57:04;3.50;;;2.20;;
2906;SDS011;1463;51.070;16.998;2023-05-14T12:59:32;5.27;;;1.70;;
2906;SDS011;1463;51.070;16.998;2023-05-14T13:01:59;2.40;;;1.43;;
2906;SDS011;1463;51.070;16.998;2023-05-14T13:04:27;2.60;;;1.50;;
2906;SDS011;1463;51.070;16.998;2023-05-14T13:06:54;3.30;;;1.70;;
2906;SDS011;1463;51.070;16.998;2023-05-14T13:09:22;3.43;;;1.70;;
2906;SDS011;1463;51.070;16.998;2023-05-14T13:11:53;3.10;;;1.80;;
2906;SDS011;1463;51.070;16.998;2023-05-14T13:14:20;8.00;;;2.33;;
2906;SDS011;1463;51.070;16.998;2023-05-14T13:16:48;2.90;;;1.83;;
2906;SDS011;1463;51.070;16.998;2023-05-14T13:19:16;13.67;;;5.33;;
2906;SDS011;1463;51.070;16.998;2023-05-14T13:21:46;5.10;;;2.90;;
2906;SDS011;1463;51.070;16.998;2023-05-14T13:24:14;4.80;;;2.40;;
2906;SDS011;1463;51.070;16.998;2023-05-14T13:26:41;6.17;;;2.93;;
2906;SDS011;1463;51.070;16.998;2023-05-14T13:29:11;4.63;;;2.80;;
2906;SDS011;1463;51.070;16.998;2023-05-14T13:31:38;4.07;;;2.73;;
2906;SDS011;1463;51.070;16.998;2023-05-14T13:34:06;4.60;;;2.87;;
2906;SDS011;1463;51.070;16.998;2023-05-14T13:36:34;6.53;;;3.37;;
2906;SDS011;1463;51.070;16.998;2023-05-14T13:39:03;6.00;;;3.10;;
2906;SDS011;1463;51.070;16.998;2023-05-14T13:41:31;4.30;;;2.23;;
2906;SDS011;1463;51.070;16.998;2023-05-14T13:43:59;7.27;;;3.10;;
2906;SDS011;1463;51.070;16.998;2023-05-14T13:46:28;4.17;;;2.60;;
2906;SDS011;1463;51.070;16.998;2023-05-14T13:48:56;4.03;;;2.87;;
2906;SDS011;1463;51.070;16.998;2023-05-14T13:51:24;2.90;;;2.00;;
2906;SDS011;1463;51.070;16.998;2023-05-14T13:53:52;3.70;;;2.60;;
2906;SDS011;1463;51.070;16.998;2023-05-14T13:56:19;4.17;;;2.73;;
2906;SDS011;1463;51.070;16.998;2023-05-14T13:58:47;6.37;;;3.10;;
2906;SDS011;1463;51.070;16.998;2023-05-14T14:01:18;7.90;;;3.10;;
2906;SDS011;1463;51.070;16.998;2023-05-14T14:03:47;6.03;;;2.60;;
2906;SDS011;1463;51.070;16.998;2023-05-14T14:06:15;4.63;;;2.93;;
2906;SDS011;1463;51.070;16.998;2023-05-14T14:08:42;5.93;;;2.80;;
2906;SDS011;1463;51.070;16.998;2023-05-14T14:11:10;6.90;;;2.93;;
2906;SDS011;1463;51.070;16.998;2023-05-14T14:13:38;5.53;;;3.57;;
2906;SDS011;1463;51.070;16.998;2023-05-14T14:16:06;5.60;;;3.20;;
2906;SDS011;1463;51.070;16.998;2023-05-14T14:18:33;3.90;;;3.20;;
2906;SDS011;1463;51.070;16.998;2023-05-14T14:21:02;4.50;;;3.20;;
2906;SDS011;1463;51.070;16.998;2023-05-14T14:23:30;7.17;;;5.17;;
2906;SDS011;1463;51.070;16.998;2023-05-14T14:25:57;4.63;;;3.37;;
2906;SDS011;1463;51.070;16.998;2023-05-14T14:28:26;5.93;;;3.37;;
2906;SDS011;1463;51.070;16.998;2023-05-14T14:30:53;8.30;;;4.07;;
2906;SDS011;1463;51.070;16.998;2023-05-14T14:33:21;6.10;;;3.80;;
2906;SDS011;1463;51.070;16.998;2023-05-14T14:35:48;7.03;;;4.37;;
2906;SDS011;1463;51.070;16.998;2023-05-14T14:38:17;5.73;;;3.60;;
2906;SDS011;1463;51.070;16.998;2023-05-14T14:40:45;5.63;;;3.60;;
2906;SDS011;1463;51.070;16.998;2023-05-14T14:43:12;5.87;;;3.70;;
2906;SDS011;1463;51.070;16.998;2023-05-14T14:45:40;5.03;;;3.10;;
2906;SDS011;1463;51.070;16.998;2023-05-14T14:48:22;5.87;;;3.77;;
2906;SDS011;1463;51.070;16.998;2023-05-14T14:50:55;5.53;;;4.10;;
2906;SDS011;1463;51.070;16.998;2023-05-14T14:53:24;8.30;;;4.03;;
2906;SDS011;1463;51.070;16.998;2023-05-14T14:55:52;6.00;;;4.07;;
2906;SDS011;1463;51.070;16.998;2023-05-14T14:58:19;4.80;;;3.53;;
2906;SDS011;1463;51.070;16.998;2023-05-14T15:00:47;4.03;;;3.03;;
2906;SDS011;1463;51.070;16.998;2023-05-14T15:03:16;4.47;;;2.97;;
2906;SDS011;1463;51.070;16.998;2023-05-14T15:05:44;5.70;;;3.77;;
2906;SDS011;1463;51.070;16.998;2023-05-14T15:08:12;4.67;;;3.57;;